BC5 weather

Sisters Islets Lighthouse Helipad
Strait of Georgia, British Columbia, Canada

Public forecast

Using degrees Celsius for public forecast. Weather courtesy of forecast.io.

METAR (pilot weather report)

Report is more than 2 hours old.

Closest report is Powell River Airport, 21.0 nm (38.9 km) N. Retrieved 2019/09/17 02:00 UTC (4 hours ago):

CYPW 170200Z 11009G16KT 070V140 15SM -RA BKN067 OVC090 14/11 A2978 RMK AC5AS3 LAST STFD OBS/NEXT 171300Z SLP088 DENSITY ALT 600FT

TAF (pilot weather forecast)

Forecast is more than 12 hours old.

Closest forecast is Comox Airport, 22.1 nm (41.0 km) NW. Retrieved 2019/09/16 00:42 UTC (1 day ago):

TAF CYQQ 162339Z 1700/1724 14010KT P6SM FEW015 SCT030 BKN080 FM170300 14012KT P6SM FEW015 BKN030 TEMPO 1705/1708 P6SM -SHRA FM170900 14020G30KT P6SM -RA SCT012 OVC030 TEMPO 1711/1724 4SM -SHRA BR BKN012 BECMG 1718/1720 14012KT RMK NXT FCST BY 170600Z